Time;durP1;ratioP1;P1;durP2;ratioP2;P2;SDS_P1;SDS_P2;PMS_P1;PMS_P2;Temp;Humidity;BMP_temperature;BMP_pressure;BME280_temperature;BME280_humidity;BME280_pressure;Samples;Min_cycle;Max_cycle;Signal;HPM_P1;HPM_P2
2022/09/26 00:01:28;;;;;;;5.90;1.60;;;11.40;99.90;;;;;;4875465;29;20377;-72
2022/09/26 00:03:57;;;;;;;3.97;1.50;;;11.40;99.90;;;;;;4865607;29;20144;-73
2022/09/26 00:06:24;;;;;;;7.03;1.70;;;11.30;99.90;;;;;;4878187;29;20041;-73
2022/09/26 00:08:51;;;;;;;5.85;2.00;;;11.40;99.90;;;;;;4879984;29;20117;-73
2022/09/26 00:11:20;;;;;;;3.88;1.80;;;11.40;99.90;;;;;;4874664;29;20175;-72
2022/09/26 00:13:46;;;;;;;11.68;2.13;;;11.30;99.90;;;;;;4880247;29;20146;-72
2022/09/26 00:16:13;;;;;;;9.23;2.05;;;11.40;99.90;;;;;;4862580;29;20483;-73
2022/09/26 00:18:39;;;;;;;8.57;2.23;;;11.30;99.90;;;;;;4863237;29;20048;-74
2022/09/26 00:21:08;;;;;;;8.25;2.13;;;11.40;99.90;;;;;;4873589;29;20049;-73
2022/09/26 00:23:34;;;;;;;6.45;2.20;;;11.40;99.90;;;;;;4870267;29;20045;-74
2022/09/26 00:26:00;;;;;;;7.32;2.03;;;11.30;99.90;;;;;;4860326;29;20093;-74
2022/09/26 00:28:26;;;;;;;5.90;1.90;;;11.30;99.90;;;;;;4880119;29;20045;-74
2022/09/26 00:30:53;;;;;;;6.70;2.08;;;11.30;99.90;;;;;;4876222;29;20495;-73
2022/09/26 00:33:18;;;;;;;7.35;2.28;;;11.30;99.90;;;;;;4861955;29;20045;-72
2022/09/26 00:35:52;;;;;;;7.07;2.38;;;11.40;99.90;;;;;;4854477;29;20064;-74
2022/09/26 00:38:18;;;;;;;5.53;1.90;;;11.30;99.90;;;;;;4876995;29;20491;-74
2022/09/26 00:40:45;;;;;;;7.75;1.90;;;11.30;99.90;;;;;;4874609;29;20412;-75
2022/09/26 00:43:37;;;;;;;7.40;2.42;;;11.40;99.90;;;;;;4878732;29;20057;-74
2022/09/26 00:46:36;;;;;;;9.50;1.83;;;11.40;99.90;;;;;;4857158;29;20082;-73
2022/09/26 00:49:20;;;;;;;5.75;2.10;;;11.40;99.90;;;;;;4861563;29;20041;-71
2022/09/26 00:52:04;;;;;;;5.88;1.83;;;11.50;99.90;;;;;;4873285;29;20152;-73
2022/09/26 00:54:30;;;;;;;7.60;1.60;;;11.40;99.90;;;;;;4870459;29;20077;-73
2022/09/26 00:57:05;;;;;;;4.55;1.88;;;11.40;99.90;;;;;;4862408;29;20531;-71
2022/09/26 00:59:34;;;;;;;5.85;2.13;;;11.40;99.90;;;;;;4860724;29;20064;-74
2022/09/26 01:02:00;;;;;;;3.83;1.63;;;11.30;99.90;;;;;;4857333;29;20057;-74
2022/09/26 01:04:28;;;;;;;7.70;1.88;;;11.30;99.90;;;;;;4860790;29;20444;-72
2022/09/26 01:06:58;;;;;;;7.40;1.90;;;11.30;99.90;;;;;;4874659;29;20074;-73
2022/09/26 01:09:28;;;;;;;5.47;1.80;;;11.40;99.90;;;;;;4876317;29;20036;-73
2022/09/26 01:11:55;;;;;;;5.05;1.83;;;11.30;99.90;;;;;;4877186;29;20191;-73
2022/09/26 01:14:21;;;;;;;10.43;1.95;;;11.30;99.90;;;;;;4874950;29;20178;-73
2022/09/26 01:16:49;;;;;;;5.55;1.90;;;11.30;99.90;;;;;;4874217;29;20041;-71
2022/09/26 01:19:43;;;;;;;5.63;2.10;;;11.40;99.90;;;;;;4857825;29;20045;-73
2022/09/26 01:22:28;;;;;;;4.43;1.90;;;11.40;99.90;;;;;;4857701;29;20048;-73
2022/09/26 01:25:00;;;;;;;14.00;2.30;;;11.40;99.90;;;;;;4871094;29;20088;-73
2022/09/26 01:27:44;;;;;;;8.57;2.25;;;11.40;99.90;;;;;;4876323;29;20053;-72
2022/09/26 01:30:17;;;;;;;5.03;2.30;;;11.40;99.90;;;;;;4857627;29;20129;-72
2022/09/26 01:32:49;;;;;;;5.10;2.10;;;11.30;99.90;;;;;;4869786;29;20064;-72
2022/09/26 02:43:41;;;;;;;13.50;4.00;;;11.10;99.90;;;;;;5095169;23;20062;-68
2022/09/26 02:46:07;;;;;;;6.90;4.05;;;11.10;99.90;;;;;;4878692;29;20048;-69
2022/09/26 02:48:42;;;;;;;8.50;3.60;;;11.10;99.90;;;;;;4874347;29;20115;-70
2022/09/26 02:51:48;;;;;;;9.43;3.42;;;11.10;99.90;;;;;;4878963;29;20047;-69
2022/09/26 02:54:38;;;;;;;11.25;4.53;;;11.10;99.90;;;;;;4877884;29;20451;-70
2022/09/26 02:57:38;;;;;;;9.45;3.42;;;11.10;99.90;;;;;;4896443;29;20096;-70
2022/09/26 03:00:15;;;;;;;;;;;11.10;99.90;;;;;;4881359;29;20061;-70
2022/09/26 03:03:05;;;;;;;11.80;4.05;;;11.00;99.90;;;;;;4894781;29;19923;-70
2022/09/26 03:05:33;;;;;;;7.82;4.68;;;11.00;99.90;;;;;;4894377;29;20056;-69
2022/09/26 03:08:06;;;;;;;7.25;4.13;;;11.20;99.90;;;;;;4895678;29;20103;-69
2022/09/26 03:10:33;;;;;;;12.95;3.60;;;11.00;99.90;;;;;;4897988;29;20139;-69
2022/09/26 03:13:06;;;;;;;8.05;3.85;;;11.00;99.90;;;;;;4884056;29;20060;-69
2022/09/26 03:15:34;;;;;;;11.10;3.72;;;11.00;99.90;;;;;;4894542;29;20059;-70
2022/09/26 03:18:02;;;;;;;8.15;3.97;;;11.00;99.90;;;;;;4898694;29;20040;-71
2022/09/26 03:20:28;;;;;;;9.38;3.85;;;10.90;99.90;;;;;;4898701;29;20495;-71
2022/09/26 03:22:54;;;;;;;7.63;4.00;;;10.90;99.90;;;;;;4898768;29;20044;-71
2022/09/26 03:25:24;;;;;;;7.55;4.05;;;10.90;99.90;;;;;;4898539;29;20040;-71
2022/09/26 03:27:51;;;;;;;12.65;4.72;;;10.90;99.90;;;;;;4897736;29;20415;-71
2022/09/26 03:30:20;;;;;;;9.23;4.45;;;10.90;99.90;;;;;;4898224;29;20075;-70
2022/09/26 03:32:46;;;;;;;6.47;3.95;;;11.00;99.90;;;;;;4898387;29;20104;-70
2022/09/26 03:35:12;;;;;;;7.53;4.50;;;10.90;99.90;;;;;;4897538;29;20060;-70
2022/09/26 03:37:38;;;;;;;9.65;4.68;;;10.90;99.90;;;;;;4880646;29;20045;-71
2022/09/26 03:40:06;;;;;;;11.05;4.50;;;10.90;99.90;;;;;;4896453;29;20092;-71
2022/09/26 03:42:32;;;;;;;7.60;4.10;;;10.90;99.90;;;;;;4899478;29;20056;-70
2022/09/26 03:45:02;;;;;;;12.18;4.38;;;10.90;99.90;;;;;;4895288;29;20109;-71
2022/09/26 03:47:28;;;;;;;8.50;4.43;;;10.90;99.90;;;;;;4902239;29;20644;-70
2022/09/26 03:49:53;;;;;;;12.73;4.90;;;10.90;99.90;;;;;;4900317;29;20044;-69
2022/09/26 03:52:20;;;;;;;8.48;4.63;;;10.90;99.90;;;;;;4901588;29;20181;-71
2022/09/26 03:54:46;;;;;;;11.98;4.80;;;10.90;99.90;;;;;;4899681;29;20407;-70
2022/09/26 03:57:15;;;;;;;12.13;5.00;;;10.90;99.90;;;;;;4897560;29;20055;-70
2022/09/26 03:59:41;;;;;;;11.38;4.88;;;10.90;99.90;;;;;;4895721;29;20129;-71
2022/09/26 04:02:07;;;;;;;11.27;5.10;;;11.40;99.90;;;;;;4897053;29;20484;-71
2022/09/26 04:04:32;;;;;;;9.63;4.63;;;11.00;99.90;;;;;;4902657;29;20080;-70
2022/09/26 04:06:59;;;;;;;12.38;5.88;;;10.90;99.90;;;;;;4900901;29;20075;-70
2022/09/26 04:09:25;;;;;;;9.35;5.03;;;10.90;99.90;;;;;;4898371;29;20048;-71
2022/09/26 04:11:52;;;;;;;9.55;4.93;;;10.90;99.90;;;;;;4898445;29;20040;-71
2022/09/26 04:14:18;;;;;;;10.18;4.60;;;10.90;99.90;;;;;;4898313;29;20135;-70
2022/09/26 04:16:45;;;;;;;13.25;5.35;;;10.90;99.90;;;;;;4896196;29;20049;-70
2022/09/26 04:19:11;;;;;;;11.05;5.45;;;10.90;99.90;;;;;;4897620;29;20136;-71
2022/09/26 04:21:39;;;;;;;10.02;5.78;;;10.90;99.90;;;;;;4896462;29;20408;-70
2022/09/26 04:24:06;;;;;;;10.38;6.10;;;11.00;99.90;;;;;;4898675;29;20052;-70
2022/09/26 04:26:32;;;;;;;12.75;5.15;;;10.90;99.90;;;;;;4897342;29;20151;-71
2022/09/26 04:28:58;;;;;;;12.75;5.70;;;11.00;99.90;;;;;;4897999;29;20559;-70
2022/09/26 04:31:26;;;;;;;12.18;5.63;;;10.90;99.90;;;;;;4896353;29;20127;-71
2022/09/26 04:33:54;;;;;;;10.43;5.85;;;11.00;99.90;;;;;;4894729;29;20542;-70
2022/09/26 04:36:20;;;;;;;15.50;5.80;;;10.90;99.90;;;;;;4895603;29;20136;-71
2022/09/26 04:38:46;;;;;;;9.50;5.82;;;10.90;99.90;;;;;;4876741;29;20461;-71
2022/09/26 04:41:22;;;;;;;7.95;5.35;;;10.90;99.90;;;;;;4887835;29;20131;-71
2022/09/26 04:43:48;;;;;;;9.93;5.43;;;10.80;99.90;;;;;;4889477;29;20430;-72
2022/09/26 04:46:20;;;;;;;9.40;5.43;;;10.80;99.90;;;;;;4895933;29;20033;-71
2022/09/26 04:48:46;;;;;;;11.55;6.10;;;10.80;99.90;;;;;;4896128;29;20124;-72
2022/09/26 04:51:14;;;;;;;11.70;6.07;;;10.80;99.90;;;;;;4891589;29;20154;-70
2022/09/26 04:53:40;;;;;;;13.30;6.43;;;10.80;99.90;;;;;;4897456;29;20045;-74
2022/09/26 04:56:08;;;;;;;14.80;6.65;;;10.80;99.90;;;;;;4889056;29;20056;-72
2022/09/26 04:58:37;;;;;;;11.27;5.72;;;10.80;99.90;;;;;;4895449;29;20057;-69
2022/09/26 05:01:08;;;;;;;11.82;6.50;;;10.80;99.90;;;;;;4889439;29;20048;-71
2022/09/26 05:03:36;;;;;;;9.63;6.30;;;10.80;99.90;;;;;;4894796;29;20044;-70
2022/09/26 05:06:07;;;;;;;13.95;6.07;;;11.20;99.90;;;;;;4895669;29;20051;-70
2022/09/26 05:08:32;;;;;;;14.43;6.43;;;10.80;99.90;;;;;;4891767;29;20087;-70
2022/09/26 05:10:58;;;;;;;17.05;6.07;;;10.80;99.90;;;;;;4888649;29;20786;-70
2022/09/26 05:13:25;;;;;;;12.32;6.72;;;10.80;99.90;;;;;;4893459;29;20091;-70
2022/09/26 05:15:54;;;;;;;10.25;6.32;;;10.90;99.90;;;;;;4883839;29;20048;-70
2022/09/26 05:18:22;;;;;;;11.50;6.22;;;10.80;99.90;;;;;;4879636;29;20495;-72
2022/09/26 05:20:48;;;;;;;16.02;6.57;;;10.80;99.90;;;;;;4896667;29;20068;-71
2022/09/26 05:26:19;;;;;;;12.02;6.32;;;10.80;99.90;;;;;;4899743;29;20472;-70
2022/09/26 05:28:51;;;;;;;15.73;7.15;;;10.70;99.90;;;;;;4879432;29;20608;-71
2022/09/26 05:31:18;;;;;;;10.15;6.93;;;10.70;99.90;;;;;;4895709;29;20503;-71
2022/09/26 05:33:45;;;;;;;13.27;7.03;;;10.70;99.90;;;;;;4896100;29;20447;-69
2022/09/26 05:36:11;;;;;;;14.18;7.30;;;10.70;99.90;;;;;;4896864;29;20036;-73
2022/09/26 05:38:38;;;;;;;14.25;7.00;;;10.70;99.90;;;;;;4895230;29;20040;-71
2022/09/26 05:41:04;;;;;;;11.93;7.15;;;10.70;99.90;;;;;;4892951;29;20036;-71
2022/09/26 05:43:34;;;;;;;11.43;6.28;;;10.70;99.90;;;;;;4875877;29;20136;-72
2022/09/26 05:46:04;;;;;;;14.82;7.45;;;10.70;99.90;;;;;;4896705;29;20052;-71
2022/09/26 05:48:31;;;;;;;11.32;7.15;;;10.70;99.90;;;;;;4896177;29;20501;-70
2022/09/26 05:51:11;;;;;;;13.43;7.32;;;10.70;99.90;;;;;;4895720;29;20036;-70
2022/09/26 05:53:38;;;;;;;14.10;7.30;;;10.70;99.90;;;;;;4895338;29;20512;-71
2022/09/26 05:56:05;;;;;;;11.63;6.47;;;10.70;99.90;;;;;;4893347;29;20089;-71
2022/09/26 05:58:32;;;;;;;17.45;7.53;;;10.70;99.90;;;;;;4894514;29;20049;-72
2022/09/26 06:01:05;;;;;;;11.88;7.82;;;10.60;99.90;;;;;;4855488;29;20089;-71
2022/09/26 06:03:34;;;;;;;13.35;6.13;;;10.70;99.90;;;;;;4880654;29;20052;-71
2022/09/26 06:06:05;;;;;;;15.52;6.70;;;10.60;99.90;;;;;;4898783;29;20123;-70
2022/09/26 06:08:31;;;;;;;10.80;6.95;;;10.70;99.90;;;;;;4893263;29;20084;-70
2022/09/26 06:11:02;;;;;;;14.73;6.93;;;10.70;99.90;;;;;;4898481;29;20052;-71
2022/09/26 06:13:28;;;;;;;13.30;6.55;;;10.60;99.90;;;;;;4898532;29;20067;-72
2022/09/26 06:15:55;;;;;;;11.45;6.80;;;10.70;99.90;;;;;;4879616;29;20040;-72
2022/09/26 06:18:20;;;;;;;12.32;6.30;;;10.60;99.90;;;;;;4897730;29;20049;-72
2022/09/26 06:20:46;;;;;;;13.68;6.60;;;10.60;99.90;;;;;;4859495;29;20105;-72
2022/09/26 06:23:12;;;;;;;11.68;6.65;;;10.60;99.90;;;;;;4896044;29;20044;-73
2022/09/26 06:25:37;;;;;;;12.40;7.03;;;10.60;99.90;;;;;;4893572;29;20049;-71
2022/09/26 06:28:03;;;;;;;11.93;6.40;;;10.60;99.90;;;;;;4895564;29;20072;-70
2022/09/26 06:30:29;;;;;;;10.02;6.10;;;10.60;99.90;;;;;;4894943;29;20128;-71
2022/09/26 06:32:54;;;;;;;13.32;6.50;;;10.60;99.90;;;;;;4873825;29;20487;-70
2022/09/26 06:35:20;;;;;;;15.00;7.10;;;10.60;99.90;;;;;;4895838;29;20032;-71
2022/09/26 06:37:46;;;;;;;10.68;5.78;;;10.60;99.90;;;;;;4894913;29;20055;-73
2022/09/26 06:40:12;;;;;;;16.98;6.72;;;10.60;99.90;;;;;;4896505;29;20045;-71
2022/09/26 06:42:38;;;;;;;10.27;6.60;;;10.50;99.90;;;;;;4880607;29;20455;-71
2022/09/26 06:45:08;;;;;;;13.65;6.43;;;10.60;99.90;;;;;;4895356;29;20041;-71
2022/09/26 06:47:34;;;;;;;14.60;6.13;;;10.50;99.90;;;;;;4879648;29;20052;-70
2022/09/26 06:50:00;;;;;;;9.30;5.50;;;10.50;99.90;;;;;;4894304;29;20044;-73
2022/09/26 06:52:26;;;;;;;10.05;6.22;;;10.50;99.90;;;;;;4894726;29;20041;-71
2022/09/26 06:54:55;;;;;;;8.88;6.25;;;10.50;99.90;;;;;;4895470;29;20076;-69
2022/09/26 06:57:21;;;;;;;15.85;7.47;;;10.50;99.90;;;;;;4895786;29;20784;-71
2022/09/26 06:59:47;;;;;;;10.07;6.43;;;10.50;99.90;;;;;;4895202;29;20181;-71
2022/09/26 07:02:14;;;;;;;9.48;5.55;;;10.50;99.90;;;;;;4893134;29;20131;-70
2022/09/26 07:04:40;;;;;;;9.93;6.47;;;10.50;99.90;;;;;;4895194;29;20543;-71
2022/09/26 07:07:06;;;;;;;14.00;6.63;;;10.50;99.90;;;;;;4898784;29;20180;-71
2022/09/26 07:09:32;;;;;;;12.95;6.85;;;10.50;99.90;;;;;;4894963;29;20158;-71
2022/09/26 07:11:58;;;;;;;15.02;6.55;;;10.50;99.90;;;;;;4879907;29;20056;-71
2022/09/26 07:14:23;;;;;;;15.75;6.15;;;10.60;99.90;;;;;;4897946;29;20053;-72
2022/09/26 07:16:52;;;;;;;11.40;5.78;;;10.60;99.90;;;;;;4903898;29;20044;-71
2022/09/26 07:19:18;;;;;;;15.07;6.65;;;10.60;99.90;;;;;;4897479;29;20407;-71
2022/09/26 07:21:45;;;;;;;18.65;6.47;;;10.60;99.90;;;;;;4896586;29;20077;-72
2022/09/26 07:24:13;;;;;;;9.95;5.35;;;10.60;99.90;;;;;;4895585;29;20045;-72
2022/09/26 07:26:40;;;;;;;12.55;6.05;;;10.60;99.90;;;;;;4894831;29;20710;-72
2022/09/26 07:29:07;;;;;;;11.80;6.65;;;10.60;99.90;;;;;;4867940;29;20049;-71
2022/09/26 07:31:33;;;;;;;11.15;5.75;;;10.60;99.90;;;;;;4893842;29;20071;-71
2022/09/26 07:33:58;;;;;;;10.27;4.53;;;10.60;99.90;;;;;;4895490;29;20100;-71
2022/09/26 07:36:24;;;;;;;10.98;5.22;;;10.70;99.90;;;;;;4895861;29;20099;-71
2022/09/26 07:38:49;;;;;;;7.32;4.78;;;10.70;99.90;;;;;;4900942;29;20049;-71
2022/09/26 07:41:16;;;;;;;10.10;5.50;;;10.60;99.90;;;;;;4894839;29;20372;-70
2022/09/26 07:43:42;;;;;;;11.63;5.30;;;10.70;99.90;;;;;;4895474;29;20044;-70
2022/09/26 07:51:37;;;;;;;11.15;5.18;;;10.60;99.90;;;;;;4894204;29;20060;-72
2022/09/26 07:54:04;;;;;;;7.68;4.78;;;10.60;99.90;;;;;;4867855;29;20092;-71
2022/09/26 07:56:32;;;;;;;9.20;5.10;;;10.70;99.90;;;;;;4895139;29;20515;-70
2022/09/26 07:59:02;;;;;;;10.23;4.78;;;10.70;99.90;;;;;;4880518;29;20465;-71
2022/09/26 08:01:28;;;;;;;10.98;4.75;;;10.70;99.90;;;;;;4885385;29;20091;-70
2022/09/26 08:03:57;;;;;;;10.52;5.22;;;10.80;99.90;;;;;;4898593;29;20071;-70
2022/09/26 08:06:24;;;;;;;9.63;4.75;;;10.80;99.90;;;;;;4898545;29;20051;-71
2022/09/26 08:08:57;;;;;;;9.55;4.57;;;10.80;99.90;;;;;;4899001;29;20104;-71
2022/09/26 08:11:23;;;;;;;10.98;4.40;;;10.90;99.90;;;;;;4880458;29;20517;-71
2022/09/26 08:13:49;;;;;;;11.77;5.20;;;10.90;99.90;;;;;;4898438;29;20052;-72
2022/09/26 08:16:21;;;;;;;9.75;3.90;;;11.00;99.90;;;;;;4898057;29;20063;-72
2022/09/26 08:18:51;;;;;;;10.63;4.05;;;11.00;99.90;;;;;;4898510;29;20100;-70
2022/09/26 08:21:17;;;;;;;9.52;3.95;;;11.00;99.90;;;;;;4895032;29;20051;-71
2022/09/26 08:23:43;;;;;;;12.13;4.28;;;11.00;99.90;;;;;;4879944;29;20044;-71
2022/09/26 08:26:09;;;;;;;13.25;4.50;;;11.10;99.90;;;;;;4897479;29;20083;-72
2022/09/26 08:28:36;;;;;;;4.93;3.75;;;11.10;99.90;;;;;;4897575;29;20072;-71
2022/09/26 08:31:03;;;;;;;8.13;4.00;;;11.10;99.90;;;;;;4879677;29;20091;-70
2022/09/26 08:33:34;;;;;;;7.85;3.58;;;11.10;99.90;;;;;;4881165;29;20051;-72
2022/09/26 08:36:05;;;;;;;9.25;4.05;;;11.10;99.90;;;;;;4897864;29;20539;-70
2022/09/26 08:38:31;;;;;;;10.00;4.15;;;11.10;99.90;;;;;;4898674;29;20427;-70
2022/09/26 08:41:15;;;;;;;8.20;3.95;;;11.20;99.90;;;;;;4872057;29;20136;-72
2022/09/26 08:43:59;;;;;;;7.45;3.58;;;11.20;99.90;;;;;;4899117;29;20049;-70
2022/09/26 08:46:45;;;;;;;6.63;3.63;;;11.10;99.90;;;;;;4897016;29;20100;-70
2022/09/26 08:49:29;;;;;;;8.05;4.10;;;11.10;99.90;;;;;;4897482;29;20108;-71
2022/09/26 08:51:58;;;;;;;8.52;4.07;;;11.10;99.90;;;;;;4896358;29;20037;-71
2022/09/26 08:54:36;;;;;;;5.75;3.47;;;11.20;99.90;;;;;;4898138;29;20056;-70
2022/09/26 08:57:26;;;;;;;7.00;3.70;;;11.20;99.90;;;;;;4884723;29;20048;-72
2022/09/26 08:59:53;;;;;;;8.52;4.68;;;11.20;99.90;;;;;;4873430;29;20048;-72
2022/09/26 09:02:38;;;;;;;10.70;4.20;;;11.20;99.90;;;;;;4897350;29;20052;-72
2022/09/26 09:05:24;;;;;;;16.70;4.40;;;11.30;99.90;;;;;;4891341;29;20407;-69
2022/09/26 09:07:54;;;;;;;11.07;4.15;;;11.30;99.90;;;;;;4897241;29;20487;-70
2022/09/26 09:10:40;;;;;;;10.35;4.90;;;11.30;99.90;;;;;;4898284;29;20052;-70
2022/09/26 09:13:38;;;;;;;10.20;3.75;;;11.30;99.90;;;;;;4874538;29;20408;-71
2022/09/26 09:16:22;;;;;;;12.98;4.45;;;11.30;99.90;;;;;;4895412;29;20048;-73
2022/09/26 09:19:01;;;;;;;6.05;3.53;;;11.30;99.90;;;;;;4866392;29;20399;-71
2022/09/26 09:21:41;;;;;;;10.90;4.25;;;11.40;99.90;;;;;;4882300;29;20049;-72
2022/09/26 09:24:23;;;;;;;8.10;4.22;;;11.40;99.90;;;;;;4881121;29;20052;-71
2022/09/26 09:27:11;;;;;;;6.60;4.40;;;11.50;99.90;;;;;;4908219;29;20048;-73
2022/09/26 09:30:03;;;;;;;7.68;4.13;;;11.50;99.90;;;;;;4892828;29;20044;-72
2022/09/26 09:32:57;;;;;;;8.07;3.80;;;11.50;99.90;;;;;;4886382;29;20096;-72
2022/09/26 09:35:36;;;;;;;8.38;3.97;;;11.50;99.90;;;;;;4894262;29;20059;-71
2022/09/26 09:38:02;;;;;;;7.30;3.92;;;11.50;99.90;;;;;;4897623;29;20399;-72
2022/09/26 09:40:40;;;;;;;9.98;4.35;;;11.60;99.90;;;;;;4879584;29;20041;-71
2022/09/26 09:43:13;;;;;;;8.82;4.22;;;11.50;99.90;;;;;;4895255;29;20044;-72
2022/09/26 09:45:50;;;;;;;6.50;3.88;;;11.40;99.90;;;;;;4888303;29;20398;-73
2022/09/26 09:48:16;;;;;;;11.88;3.70;;;11.50;99.90;;;;;;4896264;29;20125;-72
2022/09/26 09:50:47;;;;;;;10.02;4.00;;;11.50;99.90;;;;;;4897168;29;20119;-72
2022/09/26 09:53:55;;;;;;;9.73;3.50;;;11.50;99.90;;;;;;4896343;29;20048;-72
2022/09/26 09:56:39;;;;;;;7.63;4.25;;;11.50;99.90;;;;;;4892160;29;20514;-71
2022/09/26 09:59:23;;;;;;;7.88;4.30;;;11.50;99.90;;;;;;4898639;29;20064;-71
2022/09/26 10:02:06;;;;;;;9.05;4.40;;;11.50;99.90;;;;;;4900620;29;20487;-72
2022/09/26 10:04:45;;;;;;;12.50;4.07;;;11.50;99.90;;;;;;4892962;29;20096;-71
2022/09/26 10:07:11;;;;;;;8.52;3.90;;;11.50;99.90;;;;;;4880603;29;20044;-70
2022/09/26 10:09:42;;;;;;;8.38;4.45;;;11.60;99.90;;;;;;4896519;29;20051;-72
2022/09/26 10:12:13;;;;;;;7.75;4.03;;;11.50;99.90;;;;;;4894401;29;20052;-73
2022/09/26 10:15:01;;;;;;;8.95;4.90;;;11.50;99.90;;;;;;4902934;29;20052;-71
2022/09/26 10:17:28;;;;;;;12.13;5.28;;;11.50;99.90;;;;;;4894998;29;20049;-69
2022/09/26 10:19:54;;;;;;;11.53;5.27;;;11.50;99.90;;;;;;4896983;29;20066;-71
2022/09/26 10:22:26;;;;;;;13.82;5.25;;;11.50;99.90;;;;;;4897088;29;20304;-72
2022/09/26 10:25:07;;;;;;;7.88;4.97;;;11.50;99.90;;;;;;4882580;29;20048;-71
2022/09/26 10:27:45;;;;;;;10.38;5.53;;;11.50;99.90;;;;;;4908613;29;20037;-70
2022/09/26 10:30:19;;;;;;;10.75;5.13;;;11.60;99.90;;;;;;4895146;29;20048;-71
2022/09/26 10:32:48;;;;;;;10.65;5.40;;;11.60;99.90;;;;;;4862012;29;20057;-71
2022/09/26 10:35:24;;;;;;;11.40;5.70;;;11.70;99.90;;;;;;4881912;29;20083;-71
2022/09/26 10:38:01;;;;;;;16.92;6.30;;;11.70;99.90;;;;;;4894167;29;20087;-70
2022/09/26 10:40:46;;;;;;;11.18;6.32;;;11.80;99.90;;;;;;4895041;29;20384;-70
2022/09/26 10:43:21;;;;;;;8.98;4.80;;;11.80;99.90;;;;;;4892985;29;20097;-71
2022/09/26 10:45:54;;;;;;;10.93;5.63;;;11.70;99.90;;;;;;4877254;29;20052;-71
2022/09/26 10:48:25;;;;;;;10.98;5.60;;;11.80;99.90;;;;;;4896615;29;20368;-71
2022/09/26 10:50:59;;;;;;;8.52;4.93;;;11.70;99.90;;;;;;4895197;29;20049;-72
2022/09/26 10:53:26;;;;;;;15.07;5.47;;;12.00;99.90;;;;;;4895869;29;20396;-72
2022/09/26 10:56:00;;;;;;;17.58;5.75;;;11.60;99.90;;;;;;4894850;29;20092;-71
2022/09/26 10:58:28;;;;;;;14.60;5.82;;;11.60;99.90;;;;;;4895376;29;20507;-72
2022/09/26 11:00:56;;;;;;;11.00;5.65;;;11.70;99.90;;;;;;4895525;29;20048;-72
2022/09/26 11:03:44;;;;;;;11.95;5.93;;;11.60;99.90;;;;;;4894606;29;20096;-72
2022/09/26 11:06:24;;;;;;;12.02;6.10;;;11.60;99.90;;;;;;4897049;29;20113;-71
2022/09/26 11:08:55;;;;;;;9.60;5.95;;;11.50;99.90;;;;;;4892840;29;20132;-71
2022/09/26 11:11:21;;;;;;;10.80;5.78;;;11.80;99.90;;;;;;4896449;29;20456;-72
2022/09/26 11:14:04;;;;;;;12.98;5.97;;;11.60;99.90;;;;;;4880647;29;20049;-72
2022/09/26 11:16:53;;;;;;;11.77;5.97;;;11.60;99.90;;;;;;4893555;29;20053;-71
2022/09/26 11:19:28;;;;;;;7.70;5.45;;;11.60;99.90;;;;;;4897085;29;20510;-71
2022/09/26 11:22:24;;;;;;;11.75;6.25;;;11.60;99.90;;;;;;4877028;29;20104;-72
2022/09/26 11:24:58;;;;;;;10.07;5.88;;;11.60;99.90;;;;;;4885815;29;20072;-70
2022/09/26 11:27:45;;;;;;;10.63;6.60;;;11.50;99.90;;;;;;4886065;29;20041;-71
2022/09/26 11:30:16;;;;;;;11.20;5.68;;;11.50;99.90;;;;;;4897857;29;20051;-72
2022/09/26 11:32:56;;;;;;;10.13;5.80;;;11.50;99.90;;;;;;4881718;29;20049;-73
2022/09/26 11:35:32;;;;;;;7.43;5.55;;;11.50;99.90;;;;;;4885742;29;20567;-72
2022/09/26 11:38:12;;;;;;;7.75;5.22;;;11.60;99.90;;;;;;4897097;29;20100;-72
2022/09/26 11:40:59;;;;;;;11.00;5.80;;;11.50;99.90;;;;;;4899626;29;20052;-73
2022/09/26 11:43:28;;;;;;;7.47;5.70;;;11.60;99.90;;;;;;4880974;29;20403;-73
2022/09/26 11:46:22;;;;;;;11.15;5.88;;;11.60;99.90;;;;;;4895181;29;20135;-73
2022/09/26 11:49:25;;;;;;;9.55;5.07;;;11.60;99.90;;;;;;4886152;29;20045;-71
2022/09/26 11:52:24;;;;;;;9.80;5.40;;;11.60;99.90;;;;;;4876283;29;20455;-72
2022/09/26 11:55:14;;;;;;;13.63;5.68;;;11.60;99.90;;;;;;4899634;29;20047;-71
2022/09/26 11:58:13;;;;;;;7.93;5.70;;;11.60;99.90;;;;;;4895342;29;20055;-70
2022/09/26 12:01:01;;;;;;;10.02;5.72;;;11.60;99.90;;;;;;4880235;29;20044;-71
2022/09/26 12:03:45;;;;;;;10.52;5.22;;;11.60;99.90;;;;;;4882988;29;20060;-71
2022/09/26 12:06:40;;;;;;;12.50;5.65;;;11.70;99.90;;;;;;4897405;29;20161;-71
2022/09/26 12:09:38;;;;;;;7.38;4.90;;;11.70;99.90;;;;;;4882668;29;20059;-72
2022/09/26 12:12:20;;;;;;;7.55;4.97;;;11.70;99.90;;;;;;4870566;29;20163;-72
2022/09/26 12:15:01;;;;;;;9.25;5.65;;;11.80;99.90;;;;;;4898405;29;20407;-73
2022/09/26 12:17:43;;;;;;;9.50;5.55;;;11.80;99.90;;;;;;4882355;29;20055;-73
2022/09/26 12:20:36;;;;;;;9.20;5.57;;;11.80;99.90;;;;;;4898626;29;20052;-71
2022/09/26 12:23:09;;;;;;;9.80;5.03;;;11.90;99.90;;;;;;4906674;29;20051;-72
2022/09/26 12:26:00;;;;;;;6.68;4.63;;;11.90;99.90;;;;;;4897473;29;20104;-71
2022/09/26 12:28:32;;;;;;;7.60;4.85;;;11.90;99.90;;;;;;4892072;29;20495;-71
2022/09/26 12:31:19;;;;;;;10.35;4.97;;;11.90;99.90;;;;;;4896176;29;20418;-72
2022/09/26 12:34:15;;;;;;;6.75;4.30;;;11.90;99.90;;;;;;4880521;29;20044;-72
2022/09/26 12:36:57;;;;;;;7.43;4.95;;;11.90;99.90;;;;;;4894078;29;20036;-72
2022/09/26 12:39:25;;;;;;;7.53;4.20;;;11.90;99.90;;;;;;4898650;29;20053;-72
2022/09/26 12:42:06;;;;;;;7.28;4.80;;;12.00;99.90;;;;;;4879250;29;20065;-72
2022/09/26 12:44:43;;;;;;;7.75;5.00;;;11.90;99.90;;;;;;4888111;29;20088;-72
2022/09/26 12:47:51;;;;;;;11.48;5.88;;;12.10;99.90;;;;;;4898254;29;20146;-72
2022/09/26 12:50:34;;;;;;;9.20;5.30;;;12.10;99.90;;;;;;4836402;29;20054;-72
2022/09/26 12:53:03;;;;;;;6.05;4.43;;;12.20;99.90;;;;;;4809739;29;20137;-70
2022/09/26 12:55:47;;;;;;;5.72;3.97;;;12.20;99.90;;;;;;4874177;29;20048;-71
2022/09/26 12:58:23;;;;;;;5.72;4.47;;;12.20;99.90;;;;;;4893853;29;20675;-72
2022/09/26 13:01:22;;;;;;;7.43;4.65;;;12.20;99.90;;;;;;4897636;29;20101;-71
2022/09/26 13:04:09;;;;;;;6.00;4.20;;;12.20;99.90;;;;;;4898608;29;20055;-73
2022/09/26 13:07:13;;;;;;;8.75;4.85;;;12.20;99.90;;;;;;4895284;29;20052;-72
2022/09/26 13:10:04;;;;;;;8.85;4.45;;;12.30;99.90;;;;;;4873381;29;20103;-73
2022/09/26 13:12:41;;;;;;;8.38;5.43;;;12.40;99.90;;;;;;4903284;29;20127;-72
2022/09/26 13:15:15;;;;;;;5.70;4.18;;;12.40;99.90;;;;;;4880684;29;20116;-72
2022/09/26 13:17:46;;;;;;;4.68;3.78;;;12.60;99.90;;;;;;4898113;29;20049;-72
2022/09/26 13:20:34;;;;;;;6.07;3.53;;;12.70;99.90;;;;;;4897401;29;20091;-73
2022/09/26 13:23:06;;;;;;;5.43;3.83;;;12.70;99.90;;;;;;4896306;29;20111;-72
2022/09/26 13:25:43;;;;;;;5.35;3.53;;;12.70;99.90;;;;;;4896933;29;20076;-72
2022/09/26 13:28:22;;;;;;;5.95;3.90;;;12.70;99.90;;;;;;4864945;29;20048;-72
2022/09/26 13:31:15;;;;;;;5.55;3.50;;;12.60;99.90;;;;;;4897098;29;20082;-71
2022/09/26 13:34:01;;;;;;;5.85;3.75;;;12.60;99.90;;;;;;4879398;29;20051;-72
2022/09/26 13:36:30;;;;;;;7.35;3.35;;;12.60;99.90;;;;;;4909190;29;20040;-71
2022/09/26 13:39:13;;;;;;;5.20;3.50;;;12.70;99.90;;;;;;4896565;29;20044;-71
2022/09/26 13:42:00;;;;;;;4.53;3.38;;;12.80;99.90;;;;;;4900555;29;20052;-71
2022/09/26 13:44:29;;;;;;;7.53;3.40;;;12.90;99.90;;;;;;4896381;29;20040;-71
2022/09/26 13:47:22;;;;;;;6.63;3.00;;;13.00;99.90;;;;;;4897352;29;20052;-72
2022/09/26 13:49:54;;;;;;;5.93;3.10;;;13.00;99.90;;;;;;4896515;29;20052;-72
2022/09/26 13:53:07;;;;;;;4.43;2.70;;;13.00;99.90;;;;;;4897726;29;20056;-71
2022/09/26 13:55:34;;;;;;;4.28;2.90;;;12.90;99.90;;;;;;4860186;29;20072;-72
2022/09/26 13:58:17;;;;;;;6.15;3.05;;;12.90;99.90;;;;;;4895719;29;20104;-71
2022/09/26 14:00:47;;;;;;;5.22;3.20;;;12.90;99.90;;;;;;4895481;29;20084;-71
2022/09/26 14:03:16;;;;;;;6.05;3.65;;;13.00;99.90;;;;;;4878786;29;20077;-73
2022/09/26 14:05:48;;;;;;;5.25;3.55;;;13.10;99.90;;;;;;4879667;29;20036;-71
2022/09/26 14:11:50;;;;;;;6.38;3.15;;;13.20;99.90;;;;;;4877599;29;20056;-72
2022/09/26 14:14:20;;;;;;;4.32;3.30;;;13.20;99.90;;;;;;4873641;29;20161;-71
2022/09/26 14:17:25;;;;;;;4.95;3.60;;;13.20;99.90;;;;;;4892310;29;20052;-73
2022/09/26 14:19:56;;;;;;;4.40;3.10;;;13.20;99.90;;;;;;4877808;29;20060;-71
2022/09/26 14:22:24;;;;;;;5.65;3.10;;;13.20;99.90;;;;;;4877802;29;20057;-72
2022/09/26 14:24:51;;;;;;;4.63;3.33;;;13.20;99.90;;;;;;4895506;29;20056;-72
2022/09/26 14:27:16;;;;;;;6.18;3.53;;;13.30;99.90;;;;;;4879477;29;20045;-72
2022/09/26 14:30:19;;;;;;;4.25;2.72;;;13.30;99.90;;;;;;4895156;29;20044;-72
2022/09/26 14:32:45;;;;;;;4.80;2.78;;;13.40;99.90;;;;;;4862370;29;20053;-71
2022/09/26 14:35:27;;;;;;;5.47;2.65;;;13.40;99.90;;;;;;4896176;29;20096;-74
2022/09/26 14:38:03;;;;;;;4.35;2.70;;;13.40;99.90;;;;;;4897249;29;20044;-72